Time;durP1;ratioP1;P1;durP2;ratioP2;P2;SDS_P1;SDS_P2;PMS_P1;PMS_P2;Temp;Humidity;BMP_temperature;BMP_pressure;BME280_temperature;BME280_humidity;BME280_pressure;Samples;Min_cycle;Max_cycle;Signal;HPM_P1;HPM_P2
2021/09/15 00:00:38;;;;;;;7.37;6.63;;;18.90;99.90;;;;;;5025579;28;20200;-76
2021/09/15 00:03:04;;;;;;;6.57;6.00;;;18.80;99.90;;;;;;5040530;28;20219;-77
2021/09/15 00:05:29;;;;;;;6.93;6.23;;;18.80;99.90;;;;;;5043740;28;20188;-76
2021/09/15 00:07:55;;;;;;;6.80;6.03;;;19.00;99.90;;;;;;5041654;28;20257;-76
2021/09/15 00:10:21;;;;;;;7.60;6.87;;;19.00;99.90;;;;;;5043893;28;20605;-76
2021/09/15 00:12:46;;;;;;;7.23;6.53;;;18.90;99.90;;;;;;5045090;28;20267;-76
2021/09/15 00:15:12;;;;;;;7.73;7.07;;;18.70;99.90;;;;;;5047359;28;20180;-76
2021/09/15 00:17:38;;;;;;;7.70;6.90;;;19.20;99.90;;;;;;5043348;28;20179;-76
2021/09/15 00:20:09;;;;;;;7.67;6.83;;;18.90;99.90;;;;;;5040950;28;20656;-75
2021/09/15 00:22:35;;;;;;;7.30;6.73;;;18.80;99.90;;;;;;5023878;28;20190;-75
2021/09/15 00:25:01;;;;;;;7.37;6.77;;;18.90;99.90;;;;;;5021926;28;20978;-75
2021/09/15 00:27:26;;;;;;;6.87;6.37;;;18.80;99.90;;;;;;5022557;28;20468;-75
2021/09/15 00:29:52;;;;;;;7.70;7.00;;;19.00;99.90;;;;;;5041001;28;20931;-75
2021/09/15 00:32:18;;;;;;;7.10;6.60;;;18.90;99.90;;;;;;5041905;28;20660;-75
2021/09/15 00:34:43;;;;;;;6.60;6.10;;;19.10;99.90;;;;;;5024064;28;20251;-76
2021/09/15 00:37:09;;;;;;;7.90;7.20;;;19.00;99.90;;;;;;5045068;28;20434;-75
2021/09/15 00:39:35;;;;;;;7.20;6.60;;;19.10;99.90;;;;;;5045720;28;20238;-75
2021/09/15 00:42:00;;;;;;;6.80;6.20;;;19.20;99.90;;;;;;5045461;28;20183;-75
2021/09/15 00:44:26;;;;;;;6.83;6.20;;;19.20;99.90;;;;;;5042864;28;20224;-75
2021/09/15 00:46:51;;;;;;;6.60;6.00;;;19.10;99.90;;;;;;5041039;28;20241;-75
2021/09/15 00:49:17;;;;;;;7.27;6.60;;;19.10;99.90;;;;;;5040647;28;20246;-76
2021/09/15 00:51:43;;;;;;;6.10;5.60;;;18.80;99.90;;;;;;5042967;28;20182;-75
2021/09/15 00:54:11;;;;;;;6.30;5.80;;;18.80;99.90;;;;;;5046614;28;20257;-75
2021/09/15 00:56:37;;;;;;;7.37;6.63;;;18.80;99.90;;;;;;5046733;28;20902;-75
2021/09/15 00:59:03;;;;;;;11.07;7.33;;;18.80;99.90;;;;;;5042404;28;20920;-75
2021/09/15 01:01:29;;;;;;;6.63;6.03;;;18.90;99.90;;;;;;5042076;28;20530;-75
2021/09/15 01:03:55;;;;;;;6.87;6.20;;;18.60;99.90;;;;;;5044579;28;20640;-75
2021/09/15 01:06:20;;;;;;;8.87;6.80;;;18.60;99.90;;;;;;5046569;28;20789;-75
2021/09/15 01:08:47;;;;;;;7.20;6.60;;;18.60;99.90;;;;;;5041947;28;20220;-75
2021/09/15 01:11:13;;;;;;;6.60;6.10;;;18.70;99.90;;;;;;5040128;28;20813;-74
2021/09/15 01:13:40;;;;;;;7.20;6.60;;;18.50;99.90;;;;;;5042552;28;20438;-75
2021/09/15 01:16:06;;;;;;;7.20;6.60;;;18.90;99.90;;;;;;5041434;28;20418;-74
2021/09/15 01:18:31;;;;;;;6.63;6.00;;;18.70;99.90;;;;;;5045883;28;20440;-75
2021/09/15 01:20:57;;;;;;;6.73;6.13;;;18.60;99.90;;;;;;5045715;28;20434;-74
2021/09/15 01:23:23;;;;;;;6.73;6.07;;;18.60;99.90;;;;;;5045118;28;20182;-75
2021/09/15 01:25:49;;;;;;;7.60;6.90;;;18.50;99.90;;;;;;5041151;28;20234;-75
2021/09/15 01:28:15;;;;;;;7.63;6.93;;;18.60;99.90;;;;;;5040613;28;20490;-75
2021/09/15 01:30:41;;;;;;;7.60;7.00;;;18.40;99.90;;;;;;5041657;28;20204;-75
2021/09/15 01:33:14;;;;;;;6.97;6.40;;;18.50;99.90;;;;;;5046037;28;20777;-75
2021/09/15 01:35:41;;;;;;;7.20;6.70;;;18.50;99.90;;;;;;5045725;28;20430;-76
2021/09/15 01:38:07;;;;;;;8.87;7.53;;;18.30;99.90;;;;;;5042647;28;20453;-75
2021/09/15 01:40:33;;;;;;;7.70;7.00;;;18.60;99.90;;;;;;5042838;28;20421;-75
2021/09/15 01:42:58;;;;;;;7.67;6.97;;;18.70;99.90;;;;;;5040216;28;20223;-76
2021/09/15 01:45:24;;;;;;;7.40;6.80;;;18.60;99.90;;;;;;5041924;28;20494;-75
2021/09/15 01:47:49;;;;;;;9.80;6.80;;;18.30;99.90;;;;;;5044851;28;20234;-75
2021/09/15 01:50:15;;;;;;;6.60;6.00;;;18.20;99.90;;;;;;5045502;28;20236;-76
2021/09/15 01:52:41;;;;;;;7.10;6.50;;;18.60;99.90;;;;;;5043043;28;20533;-76
2021/09/15 01:55:17;;;;;;;7.73;7.03;;;18.50;99.90;;;;;;5042420;28;20190;-76
2021/09/15 01:57:42;;;;;;;7.33;6.73;;;18.60;99.90;;;;;;5042027;28;20414;-75
2021/09/15 02:00:09;;;;;;;7.60;6.90;;;18.40;99.90;;;;;;5045815;28;20430;-76
2021/09/15 02:02:34;;;;;;;8.60;7.90;;;18.60;99.90;;;;;;5044220;28;20204;-76
2021/09/15 02:05:00;;;;;;;7.47;6.77;;;18.50;99.90;;;;;;5039621;28;20837;-75
2021/09/15 02:07:25;;;;;;;6.83;6.23;;;18.30;99.90;;;;;;5043357;28;20206;-76
2021/09/15 02:09:50;;;;;;;8.80;7.20;;;18.70;99.90;;;;;;5043333;28;20203;-75
2021/09/15 02:12:16;;;;;;;8.50;6.73;;;18.50;99.90;;;;;;5045384;28;20181;-75
2021/09/15 02:14:42;;;;;;;7.20;6.50;;;18.60;99.90;;;;;;5038862;28;20259;-76
2021/09/15 02:17:07;;;;;;;8.40;7.70;;;18.60;99.90;;;;;;5041571;28;20533;-75
2021/09/15 02:19:33;;;;;;;8.47;7.00;;;18.50;99.90;;;;;;5040176;28;20744;-76
2021/09/15 02:21:59;;;;;;;9.27;7.27;;;18.60;99.90;;;;;;5044755;28;20184;-76
2021/09/15 02:24:24;;;;;;;7.30;6.60;;;18.60;99.90;;;;;;5044932;28;20957;-76
2021/09/15 02:26:50;;;;;;;7.50;6.90;;;18.60;99.90;;;;;;5041136;28;20583;-76
2021/09/15 02:29:15;;;;;;;7.93;6.40;;;18.70;99.90;;;;;;5039802;28;20270;-76
2021/09/15 02:31:41;;;;;;;7.07;6.47;;;18.50;99.90;;;;;;5039290;28;20180;-76
2021/09/15 02:34:06;;;;;;;7.37;6.70;;;18.30;99.90;;;;;;5045041;28;20408;-76
2021/09/15 02:36:32;;;;;;;8.97;6.90;;;18.70;99.90;;;;;;5044112;28;20648;-77
2021/09/15 02:38:58;;;;;;;7.93;7.13;;;18.80;99.90;;;;;;5043126;28;20208;-76
2021/09/15 02:41:23;;;;;;;8.33;7.57;;;18.80;99.90;;;;;;5043421;28;20624;-75
2021/09/15 02:43:49;;;;;;;7.63;7.03;;;18.40;99.90;;;;;;5038860;28;20551;-76
2021/09/15 02:46:14;;;;;;;7.17;6.63;;;18.60;99.90;;;;;;5042851;28;20210;-76
2021/09/15 02:48:40;;;;;;;7.97;7.17;;;18.50;99.90;;;;;;5044633;28;20203;-76
2021/09/15 02:51:05;;;;;;;8.20;7.40;;;18.70;99.90;;;;;;5041870;28;20264;-76
2021/09/15 02:53:31;;;;;;;7.00;6.40;;;18.50;99.90;;;;;;5041584;28;20180;-76
2021/09/15 02:55:56;;;;;;;7.53;6.93;;;18.70;99.90;;;;;;5041876;28;20716;-75
2021/09/15 02:58:22;;;;;;;7.73;7.03;;;18.70;99.90;;;;;;5044903;28;20230;-75
2021/09/15 03:00:47;;;;;;;7.87;7.17;;;18.80;99.90;;;;;;5043320;28;20538;-76
2021/09/15 03:03:13;;;;;;;7.97;7.27;;;18.50;99.90;;;;;;5041454;28;20191;-76
2021/09/15 03:05:38;;;;;;;7.40;6.70;;;18.70;99.90;;;;;;5041631;28;20201;-75
2021/09/15 03:08:04;;;;;;;7.60;6.90;;;18.60;99.90;;;;;;5039264;28;20216;-75
2021/09/15 03:10:30;;;;;;;6.97;6.40;;;18.60;99.90;;;;;;5045520;28;20194;-75
2021/09/15 03:12:55;;;;;;;7.73;7.13;;;18.50;99.90;;;;;;5042163;28;20187;-75
2021/09/15 03:15:21;;;;;;;7.43;6.83;;;18.60;99.90;;;;;;5041333;28;20188;-76
2021/09/15 03:17:47;;;;;;;8.10;7.30;;;18.80;99.90;;;;;;5041491;28;20180;-76
2021/09/15 03:20:13;;;;;;;9.87;7.67;;;18.80;99.90;;;;;;5026914;28;20188;-76
2021/09/15 03:22:38;;;;;;;8.33;7.63;;;18.60;99.90;;;;;;5044385;28;20203;-76
2021/09/15 03:25:05;;;;;;;7.27;6.67;;;18.70;99.90;;;;;;5041667;28;20426;-76
2021/09/15 03:27:31;;;;;;;8.00;7.33;;;19.00;99.90;;;;;;5042099;28;20576;-76
2021/09/15 03:29:56;;;;;;;8.20;7.43;;;18.80;99.90;;;;;;5048563;28;20417;-75
2021/09/15 03:32:22;;;;;;;9.07;7.43;;;18.60;99.90;;;;;;5048785;28;20535;-76
2021/09/15 03:34:47;;;;;;;8.27;7.57;;;18.60;99.90;;;;;;5044610;28;20271;-75
2021/09/15 03:37:13;;;;;;;7.73;7.03;;;18.60;99.90;;;;;;5044762;28;20277;-75
2021/09/15 03:39:39;;;;;;;7.43;6.93;;;18.30;99.90;;;;;;5047341;28;20235;-76
2021/09/15 03:42:04;;;;;;;7.43;6.80;;;18.40;99.90;;;;;;5048619;28;20715;-75
2021/09/15 03:44:30;;;;;;;8.07;7.30;;;18.40;99.90;;;;;;5046158;28;20287;-75
2021/09/15 03:46:56;;;;;;;7.57;6.97;;;18.20;99.90;;;;;;5043495;28;20180;-75
2021/09/15 03:49:22;;;;;;;7.63;6.97;;;18.30;99.90;;;;;;5042641;28;20226;-75
2021/09/15 03:51:48;;;;;;;8.00;7.30;;;18.60;99.90;;;;;;5044239;28;20183;-75
2021/09/15 03:54:15;;;;;;;8.10;7.50;;;18.50;99.90;;;;;;5048060;28;20244;-75
2021/09/15 03:56:40;;;;;;;8.40;7.70;;;18.40;99.90;;;;;;5047869;28;20525;-75
2021/09/15 03:59:06;;;;;;;8.27;7.57;;;18.40;99.90;;;;;;5043003;28;20456;-76
2021/09/15 04:01:31;;;;;;;8.47;7.77;;;18.20;99.90;;;;;;5044864;28;20650;-77
2021/09/15 04:03:57;;;;;;;9.17;8.30;;;18.20;99.90;;;;;;5044627;28;20194;-77
2021/09/15 04:06:23;;;;;;;9.77;8.87;;;18.30;99.90;;;;;;5047628;28;20274;-77
2021/09/15 04:08:48;;;;;;;9.00;8.20;;;18.20;99.90;;;;;;5046014;28;20245;-77
2021/09/15 04:11:14;;;;;;;8.90;7.93;;;18.00;99.90;;;;;;5044068;28;20211;-76
2021/09/15 04:13:39;;;;;;;8.70;8.00;;;18.50;99.90;;;;;;5044271;28;20236;-76
2021/09/15 04:16:05;;;;;;;8.70;7.77;;;18.40;99.90;;;;;;5047620;28;20180;-76
2021/09/15 04:18:30;;;;;;;8.10;7.23;;;18.30;99.90;;;;;;5047374;28;20271;-76
2021/09/15 04:20:56;;;;;;;10.33;8.53;;;18.00;99.90;;;;;;5041925;28;20561;-76
2021/09/15 04:23:32;;;;;;;8.90;8.20;;;18.20;99.90;;;;;;5042157;28;20193;-76
2021/09/15 04:31:27;;;;;;;9.03;8.23;;;18.30;99.90;;;;;;5047358;28;20440;-76
2021/09/15 04:33:53;;;;;;;8.20;7.60;;;18.00;99.90;;;;;;5043938;28;20787;-76
2021/09/15 04:36:19;;;;;;;8.80;8.00;;;18.40;99.90;;;;;;5043628;28;20427;-76
2021/09/15 04:38:45;;;;;;;8.63;7.93;;;18.20;99.90;;;;;;5044387;28;20439;-76
2021/09/15 04:41:11;;;;;;;9.13;8.23;;;18.10;99.90;;;;;;5046736;28;20441;-76
2021/09/15 04:43:37;;;;;;;9.80;8.57;;;18.10;99.90;;;;;;5044291;28;20185;-76
2021/09/15 04:46:03;;;;;;;9.20;8.30;;;18.30;99.90;;;;;;5041019;28;20455;-76
2021/09/15 04:48:28;;;;;;;8.50;7.70;;;18.20;99.90;;;;;;5038797;28;20207;-76
2021/09/15 04:50:54;;;;;;;8.87;8.07;;;18.10;99.90;;;;;;5044881;28;20269;-75
2021/09/15 04:53:20;;;;;;;9.00;8.10;;;18.20;99.90;;;;;;5045395;28;20184;-75
2021/09/15 04:55:46;;;;;;;8.10;7.30;;;18.50;99.90;;;;;;5044384;28;20780;-75
2021/09/15 04:58:11;;;;;;;10.43;9.00;;;18.50;99.90;;;;;;5041608;28;20207;-75
2021/09/15 05:00:37;;;;;;;8.60;7.90;;;18.10;99.90;;;;;;5042256;28;20434;-75
2021/09/15 05:03:03;;;;;;;9.10;8.20;;;18.30;99.90;;;;;;5040921;28;20573;-75
2021/09/15 05:05:28;;;;;;;9.20;8.13;;;18.30;99.90;;;;;;5047071;28;20197;-75
2021/09/15 05:07:54;;;;;;;9.13;8.33;;;18.30;99.90;;;;;;5044786;28;20205;-85
2021/09/15 05:10:24;;;;;;;9.17;8.37;;;18.10;99.90;;;;;;5042034;28;20234;-74
2021/09/15 05:12:54;;;;;;;8.53;7.80;;;18.20;99.90;;;;;;5040983;28;20180;-80
2021/09/15 05:15:21;;;;;;;10.23;9.23;;;18.10;99.90;;;;;;5045138;28;20440;-69
2021/09/15 05:17:46;;;;;;;9.20;8.40;;;18.50;99.90;;;;;;5044403;28;20438;-69
2021/09/15 05:20:16;;;;;;;9.37;8.47;;;18.30;99.90;;;;;;5043881;28;20951;-70
2021/09/15 05:22:42;;;;;;;8.97;8.20;;;18.20;99.90;;;;;;5040589;28;20191;-70
2021/09/15 05:25:08;;;;;;;10.00;9.10;;;18.30;99.90;;;;;;5044003;28;20854;-70
2021/09/15 05:27:34;;;;;;;8.90;7.97;;;18.10;99.90;;;;;;5045736;28;20462;-71
2021/09/15 05:29:59;;;;;;;8.77;7.97;;;18.10;99.90;;;;;;5043072;28;21161;-71
2021/09/15 05:32:25;;;;;;;9.13;8.23;;;18.20;99.90;;;;;;5042733;28;20175;-71
2021/09/15 05:34:50;;;;;;;10.40;9.40;;;18.30;99.90;;;;;;5042487;28;20536;-71
2021/09/15 05:37:16;;;;;;;9.07;8.20;;;18.20;99.90;;;;;;5045426;28;20184;-70
2021/09/15 05:39:41;;;;;;;8.60;7.80;;;18.30;99.90;;;;;;5045902;28;20175;-70
2021/09/15 05:42:07;;;;;;;9.43;8.53;;;18.40;99.90;;;;;;5040474;28;20213;-71
2021/09/15 05:44:32;;;;;;;10.37;9.47;;;18.30;99.90;;;;;;5042094;28;20245;-71
2021/09/15 05:46:58;;;;;;;11.10;9.27;;;18.10;99.90;;;;;;5040025;28;20181;-72
2021/09/15 05:49:23;;;;;;;10.17;9.17;;;18.40;99.90;;;;;;5043839;28;20235;-72
2021/09/15 05:51:49;;;;;;;10.20;9.33;;;18.30;99.90;;;;;;5042940;28;20184;-72
2021/09/15 05:54:14;;;;;;;9.97;9.00;;;18.50;99.90;;;;;;5043640;28;20178;-72
2021/09/15 05:56:40;;;;;;;8.87;8.17;;;18.60;99.90;;;;;;5041774;28;20183;-72
2021/09/15 05:59:05;;;;;;;10.37;9.47;;;18.40;99.90;;;;;;5041989;28;20554;-72
2021/09/15 06:01:31;;;;;;;10.20;8.63;;;18.30;99.90;;;;;;5045666;28;20198;-71
2021/09/15 06:03:56;;;;;;;9.57;8.67;;;18.20;99.90;;;;;;5043921;28;20180;-70
2021/09/15 06:06:22;;;;;;;11.80;8.63;;;18.50;99.90;;;;;;5040339;28;20283;-71
2021/09/15 06:08:47;;;;;;;9.17;8.27;;;18.40;99.90;;;;;;5040652;28;20578;-71
2021/09/15 06:11:13;;;;;;;10.23;9.27;;;18.50;99.90;;;;;;5042033;28;20599;-70
2021/09/15 06:13:38;;;;;;;11.07;9.53;;;18.40;99.90;;;;;;5045147;28;20231;-70
2021/09/15 06:16:06;;;;;;;10.60;9.53;;;18.50;99.90;;;;;;5044093;28;20230;-69
2021/09/15 06:18:33;;;;;;;9.17;8.20;;;18.50;99.90;;;;;;5044118;28;20185;-69
2021/09/15 06:20:59;;;;;;;10.33;9.33;;;18.50;99.90;;;;;;5040061;28;20908;-69
2021/09/15 06:23:24;;;;;;;9.97;9.07;;;18.40;99.90;;;;;;5045606;28;21263;-68
2021/09/15 06:25:50;;;;;;;9.53;8.40;;;18.10;99.90;;;;;;5043564;28;20436;-71
2021/09/15 06:28:15;;;;;;;10.03;9.13;;;18.30;99.90;;;;;;5042805;28;20261;-69
2021/09/15 06:30:41;;;;;;;9.87;8.97;;;18.30;99.90;;;;;;5041786;28;20180;-71
2021/09/15 06:33:07;;;;;;;9.93;9.10;;;18.10;99.90;;;;;;5043924;28;20180;-71
2021/09/15 06:35:33;;;;;;;10.30;9.40;;;18.30;99.90;;;;;;5046862;28;20947;-71
2021/09/15 06:37:59;;;;;;;10.30;9.40;;;18.20;99.90;;;;;;5061517;28;20433;-71
2021/09/15 06:40:42;;;;;;;10.13;9.13;;;18.50;99.90;;;;;;5023097;28;20188;-71
2021/09/15 06:43:08;;;;;;;10.47;9.43;;;18.20;99.90;;;;;;5042147;28;20693;-72
2021/09/15 06:45:34;;;;;;;9.60;8.80;;;18.30;99.90;;;;;;5044395;28;20514;-71
2021/09/15 06:47:59;;;;;;;9.20;8.30;;;18.50;99.90;;;;;;5045045;28;20207;-71
2021/09/15 06:50:25;;;;;;;8.73;7.93;;;18.50;99.90;;;;;;5051861;28;20474;-71
2021/09/15 06:52:51;;;;;;;10.50;9.50;;;18.30;99.90;;;;;;5060266;28;20287;-71
2021/09/15 06:55:16;;;;;;;9.20;8.20;;;18.60;99.90;;;;;;5053048;28;20186;-72
2021/09/15 06:57:42;;;;;;;9.87;8.97;;;18.60;99.90;;;;;;5042924;28;20714;-71
2021/09/15 07:00:09;;;;;;;10.07;9.07;;;18.60;99.90;;;;;;5041047;28;20193;-72
2021/09/15 07:02:35;;;;;;;8.70;7.90;;;18.60;99.90;;;;;;5045125;28;20200;-72
2021/09/15 07:05:00;;;;;;;8.60;7.90;;;18.60;99.90;;;;;;5050885;28;20439;-71
2021/09/15 07:07:26;;;;;;;9.53;8.63;;;18.60;99.90;;;;;;5046823;28;20686;-72
2021/09/15 07:09:52;;;;;;;8.47;7.50;;;18.70;99.90;;;;;;5043417;28;20200;-71
2021/09/15 07:12:17;;;;;;;8.57;7.73;;;18.90;99.90;;;;;;5045549;28;20183;-71
2021/09/15 07:14:43;;;;;;;9.90;8.97;;;18.60;99.90;;;;;;5060607;28;20613;-71
2021/09/15 07:17:08;;;;;;;8.40;7.63;;;18.90;99.90;;;;;;5050379;28;20238;-88
2021/09/15 07:19:34;;;;;;;8.87;8.10;;;18.80;99.90;;;;;;5045032;28;20192;-72
2021/09/15 07:21:59;;;;;;;9.50;8.50;;;18.90;99.90;;;;;;5044176;28;20188;-72
2021/09/15 07:24:25;;;;;;;9.93;9.00;;;19.10;99.90;;;;;;5048063;28;20180;-72
2021/09/15 07:26:52;;;;;;;9.37;8.47;;;19.10;99.90;;;;;;5043819;28;20205;-72
2021/09/15 07:29:18;;;;;;;8.67;7.87;;;19.40;99.90;;;;;;5042705;28;20223;-71
2021/09/15 07:31:43;;;;;;;9.23;8.43;;;19.40;99.90;;;;;;5046746;28;20814;-72
2021/09/15 07:34:09;;;;;;;8.90;8.10;;;19.20;99.90;;;;;;5064188;28;20415;-72
2021/09/15 07:36:35;;;;;;;8.07;7.27;;;19.60;99.90;;;;;;5061007;28;20905;-72
2021/09/15 07:39:05;;;;;;;9.30;7.90;;;19.70;99.90;;;;;;5067884;28;20187;-72
2021/09/15 07:41:30;;;;;;;9.17;7.33;;;19.50;99.90;;;;;;5068045;28;20509;-72
2021/09/15 07:43:56;;;;;;;8.23;7.40;;;19.60;99.90;;;;;;5062351;28;20863;-72
2021/09/15 07:46:22;;;;;;;7.43;6.80;;;19.60;99.90;;;;;;5060731;28;20188;-71
2021/09/15 07:48:51;;;;;;;7.00;6.40;;;19.50;99.90;;;;;;5062455;28;20207;-72
2021/09/15 07:51:17;;;;;;;6.90;6.20;;;19.40;99.90;;;;;;5067451;28;20431;-71
2021/09/15 07:53:43;;;;;;;6.60;5.90;;;19.60;99.90;;;;;;5067252;28;20516;-71
2021/09/15 07:56:09;;;;;;;7.17;6.57;;;19.50;99.90;;;;;;5063679;28;20415;-72
2021/09/15 07:58:34;;;;;;;6.80;6.10;;;19.30;99.90;;;;;;5044910;28;20729;-71
2021/09/15 08:01:00;;;;;;;7.30;6.23;;;19.50;99.90;;;;;;5042293;28;21141;-72
2021/09/15 08:03:26;;;;;;;6.87;6.37;;;19.40;99.90;;;;;;5042254;28;20255;-71
2021/09/15 08:05:54;;;;;;;8.57;7.83;;;19.50;99.90;;;;;;5042213;28;20188;-72
2021/09/15 08:08:19;;;;;;;8.00;7.30;;;19.30;99.90;;;;;;5044016;28;20217;-72
2021/09/15 08:10:45;;;;;;;7.87;7.17;;;19.30;99.90;;;;;;5045793;28;20804;-72
2021/09/15 08:13:10;;;;;;;7.53;6.93;;;19.30;99.90;;;;;;5046539;28;20202;-71
2021/09/15 08:15:36;;;;;;;8.80;8.00;;;19.60;99.90;;;;;;5045573;28;20252;-71
2021/09/15 08:18:01;;;;;;;7.70;7.00;;;19.80;99.90;;;;;;5042284;28;20181;-71
2021/09/15 08:20:27;;;;;;;8.70;6.80;;;19.80;99.90;;;;;;5042844;28;20208;-71
2021/09/15 08:22:52;;;;;;;8.40;7.60;;;19.60;99.90;;;;;;5045473;28;20214;-71
2021/09/15 08:25:18;;;;;;;7.83;7.13;;;19.50;99.90;;;;;;5047065;28;20384;-71
2021/09/15 08:27:44;;;;;;;7.97;7.30;;;19.20;99.90;;;;;;5045437;28;20247;-72
2021/09/15 08:30:11;;;;;;;7.73;7.00;;;19.50;99.90;;;;;;5042781;28;20190;-70
2021/09/15 08:32:36;;;;;;;8.83;7.37;;;19.40;99.90;;;;;;5043488;28;20416;-70
2021/09/15 08:35:03;;;;;;;9.20;8.40;;;19.50;99.90;;;;;;5042047;28;20706;-70
2021/09/15 08:37:36;;;;;;;9.13;8.30;;;19.30;99.90;;;;;;5044790;28;20845;-69
2021/09/15 08:40:03;;;;;;;8.90;8.00;;;19.40;99.90;;;;;;5046586;28;20736;-71
2021/09/15 08:42:28;;;;;;;8.10;7.23;;;19.10;99.90;;;;;;5047163;28;20535;-68
2021/09/15 08:44:54;;;;;;;10.33;9.43;;;19.30;99.90;;;;;;5041841;28;20474;-69
2021/09/15 08:47:28;;;;;;;9.43;8.50;;;18.90;99.90;;;;;;5046578;28;20181;-69
2021/09/15 08:49:55;;;;;;;8.70;7.90;;;19.00;99.90;;;;;;5066636;28;20242;-69
2021/09/15 08:52:20;;;;;;;8.20;7.50;;;19.20;99.90;;;;;;5066549;28;20428;-68
2021/09/15 08:54:46;;;;;;;7.63;6.97;;;18.70;99.90;;;;;;5061222;28;20414;-69
2021/09/15 08:57:11;;;;;;;8.10;7.40;;;19.00;99.90;;;;;;5062968;28;20193;-70
2021/09/15 08:59:37;;;;;;;8.03;7.17;;;18.60;99.90;;;;;;5044934;28;20202;-69
2021/09/15 09:02:09;;;;;;;8.43;7.20;;;19.00;99.90;;;;;;5046384;28;20188;-70
2021/09/15 09:04:57;;;;;;;8.17;7.30;;;18.70;99.90;;;;;;5046368;28;20273;-70
2021/09/15 09:07:24;;;;;;;9.30;7.77;;;18.80;99.90;;;;;;5041465;28;20486;-70
2021/09/15 09:09:52;;;;;;;7.20;6.60;;;18.50;99.90;;;;;;5042409;28;20432;-70
2021/09/15 09:12:20;;;;;;;8.43;7.37;;;18.50;99.90;;;;;;5042455;28;20794;-69
2021/09/15 09:14:46;;;;;;;7.13;6.40;;;18.70;99.90;;;;;;5044140;28;20814;-69
2021/09/15 09:17:27;;;;;;;8.10;6.87;;;18.60;99.90;;;;;;5046516;28;20429;-69
2021/09/15 09:20:14;;;;;;;6.40;5.80;;;18.50;99.90;;;;;;5043581;28;20176;-70
2021/09/15 09:23:13;;;;;;;7.13;6.63;;;18.50;99.90;;;;;;5042492;28;20830;-70
2021/09/15 09:25:59;;;;;;;7.67;6.87;;;18.30;99.90;;;;;;5027132;28;20431;-73
2021/09/15 09:28:33;;;;;;;7.43;6.83;;;18.20;99.90;;;;;;5045623;28;20523;-72
2021/09/15 09:30:59;;;;;;;6.90;6.20;;;18.30;99.90;;;;;;5041530;28;20437;-73
2021/09/15 09:33:24;;;;;;;6.50;5.90;;;18.00;99.90;;;;;;5043931;28;21113;-73
2021/09/15 09:35:56;;;;;;;6.63;6.03;;;18.30;99.90;;;;;;5044271;28;20222;-71
2021/09/15 09:38:33;;;;;;;6.60;6.10;;;18.50;99.90;;;;;;5045848;28;20206;-71
2021/09/15 09:41:16;;;;;;;6.63;6.10;;;18.50;99.90;;;;;;5041749;28;21004;-70
2021/09/15 09:43:51;;;;;;;7.13;6.40;;;18.50;99.90;;;;;;5042228;28;20525;-71
2021/09/15 09:46:20;;;;;;;8.40;6.20;;;18.50;99.90;;;;;;5045693;28;20854;-71
2021/09/15 09:48:54;;;;;;;8.30;6.77;;;18.60;99.90;;;;;;5043495;28;20478;-71
2021/09/15 09:51:34;;;;;;;6.73;6.10;;;19.00;99.90;;;;;;5043056;28;20450;-71
2021/09/15 09:54:08;;;;;;;6.40;5.90;;;19.20;99.90;;;;;;5040545;28;20519;-71
2021/09/15 09:56:35;;;;;;;7.03;6.03;;;19.60;99.90;;;;;;5039882;28;20624;-71
2021/09/15 09:59:03;;;;;;;7.50;6.80;;;19.40;99.90;;;;;;5063274;28;20526;-71
2021/09/15 10:01:31;;;;;;;9.37;6.70;;;19.60;99.90;;;;;;5063699;28;20446;-71
2021/09/15 10:03:59;;;;;;;7.03;6.43;;;20.00;99.90;;;;;;5061762;28;20502;-72
2021/09/15 10:06:25;;;;;;;6.40;5.90;;;20.20;99.90;;;;;;5061430;28;20506;-71
2021/09/15 10:08:52;;;;;;;6.70;6.10;;;20.50;99.90;;;;;;5064869;28;20573;-71
2021/09/15 10:11:17;;;;;;;7.07;6.47;;;20.60;99.90;;;;;;5064784;28;20279;-71
2021/09/15 10:13:43;;;;;;;6.23;5.73;;;20.90;99.90;;;;;;5060154;28;20538;-71
2021/09/15 10:16:09;;;;;;;7.00;6.00;;;20.90;99.90;;;;;;5060042;28;20668;-71
2021/09/15 10:18:35;;;;;;;6.67;6.07;;;21.10;99.90;;;;;;5061708;28;20194;-70
2021/09/15 10:21:05;;;;;;;6.47;5.87;;;21.10;99.90;;;;;;5063140;28;20473;-71
2021/09/15 10:23:38;;;;;;;6.47;5.73;;;21.00;99.90;;;;;;5064911;28;20423;-71
2021/09/15 10:26:25;;;;;;;6.93;6.33;;;21.40;99.90;;;;;;5059157;28;20435;-71
2021/09/15 10:29:16;;;;;;;6.10;5.53;;;21.30;99.90;;;;;;5057172;28;20474;-71
2021/09/15 10:32:00;;;;;;;6.37;5.87;;;21.60;99.90;;;;;;5061292;28;20853;-73
2021/09/15 10:34:44;;;;;;;5.80;5.30;;;21.40;99.90;;;;;;5065258;28;20548;-71
2021/09/15 10:37:12;;;;;;;5.67;5.17;;;21.50;99.90;;;;;;5070457;28;20416;-72
2021/09/15 10:39:56;;;;;;;6.10;5.60;;;21.30;99.90;;;;;;5065814;28;20440;-71
2021/09/15 10:42:46;;;;;;;7.50;5.80;;;21.30;99.90;;;;;;5030425;28;20926;-72
2021/09/15 10:45:17;;;;;;;6.80;6.10;;;21.30;99.90;;;;;;5031612;28;20426;-71
2021/09/15 10:48:02;;;;;;;6.37;5.83;;;21.20;99.90;;;;;;5033500;28;20476;-71
2021/09/15 10:50:27;;;;;;;6.50;5.90;;;21.10;99.90;;;;;;5040190;28;20953;-71
2021/09/15 10:53:12;;;;;;;6.30;5.70;;;21.20;99.90;;;;;;5055190;28;20504;-71
2021/09/15 10:55:43;;;;;;;7.93;6.00;;;21.80;99.90;;;;;;5054171;28;20248;-71
2021/09/15 10:58:10;;;;;;;6.47;5.87;;;21.70;99.90;;;;;;5046672;28;20444;-71
2021/09/15 11:00:48;;;;;;;6.53;5.93;;;21.90;99.90;;;;;;5051496;28;20881;-71
2021/09/15 11:03:32;;;;;;;6.13;5.60;;;22.30;99.90;;;;;;5054549;28;20430;-72
2021/09/15 11:06:19;;;;;;;5.83;5.37;;;22.40;99.90;;;;;;5055137;28;20417;-72
2021/09/15 11:08:50;;;;;;;10.10;5.97;;;22.90;99.90;;;;;;5057245;28;21129;-71
2021/09/15 11:11:22;;;;;;;6.47;5.03;;;22.70;99.90;;;;;;5073348;28;20417;-72
2021/09/15 11:13:49;;;;;;;6.10;5.50;;;22.40;99.90;;;;;;5037980;28;20469;-74
2021/09/15 11:16:35;;;;;;;6.50;5.90;;;22.40;99.90;;;;;;5055266;28;20509;-72
2021/09/15 11:19:11;;;;;;;5.97;5.33;;;22.30;99.90;;;;;;5061454;28;20428;-72
2021/09/15 11:21:44;;;;;;;6.07;5.60;;;22.40;99.90;;;;;;5074509;28;20439;-72
2021/09/15 11:24:14;;;;;;;6.50;5.90;;;22.30;99.90;;;;;;5073820;28;20424;-72
2021/09/15 11:26:47;;;;;;;7.67;6.97;;;22.60;99.90;;;;;;5073011;28;20424;-72
2021/09/15 11:29:15;;;;;;;7.20;6.60;;;22.40;99.90;;;;;;5074679;28;20829;-71
2021/09/15 11:31:42;;;;;;;6.60;6.00;;;22.30;99.90;;;;;;5059768;28;20439;-72
2021/09/15 11:34:14;;;;;;;6.60;5.97;;;22.30;99.90;;;;;;5055991;28;20532;-71
2021/09/15 11:36:49;;;;;;;7.37;6.00;;;22.10;99.90;;;;;;5054840;28;20412;-71
2021/09/15 11:39:18;;;;;;;9.63;8.90;;;22.10;99.90;;;;;;5053388;28;20432;-71
2021/09/15 11:41:44;;;;;;;7.70;7.10;;;22.00;99.90;;;;;;5058580;28;20507;-72
2021/09/15 11:44:09;;;;;;;7.43;6.70;;;22.20;99.90;;;;;;5073329;28;20555;-71
2021/09/15 11:46:37;;;;;;;6.37;5.93;;;22.20;99.90;;;;;;5074718;28;20174;-72
2021/09/15 11:49:04;;;;;;;7.67;6.40;;;22.20;99.90;;;;;;5071107;28;20641;-73
2021/09/15 11:51:35;;;;;;;6.80;6.20;;;21.70;99.90;;;;;;5060486;28;21172;-71
2021/09/15 11:56:37;;;;;;;10.97;10.17;;;22.10;99.90;;;;;;5051524;28;20418;-71
2021/09/15 11:59:03;;;;;;;8.63;7.73;;;22.00;99.90;;;;;;5031615;28;21304;-72
2021/09/15 12:01:31;;;;;;;6.70;6.20;;;22.10;99.90;;;;;;5049228;28;20441;-71
2021/09/15 12:04:01;;;;;;;6.40;5.90;;;22.10;99.90;;;;;;5049099;28;20791;-71
2021/09/15 12:06:27;;;;;;;7.10;6.40;;;22.40;99.90;;;;;;5046045;28;20958;-71
2021/09/15 12:08:56;;;;;;;5.73;5.00;;;22.30;99.90;;;;;;5045811;28;21071;-71
2021/09/15 12:11:21;;;;;;;6.67;6.17;;;22.30;99.90;;;;;;5049121;28;20426;-72
2021/09/15 12:13:56;;;;;;;6.07;5.60;;;22.40;99.90;;;;;;5046856;28;20436;-71
2021/09/15 12:16:29;;;;;;;6.73;6.13;;;22.70;99.90;;;;;;5050635;28;20440;-71
2021/09/15 12:18:55;;;;;;;5.90;5.40;;;22.70;99.90;;;;;;5047215;28;20432;-72
2021/09/15 12:21:22;;;;;;;6.20;5.70;;;22.60;99.90;;;;;;5057046;28;20445;-71
2021/09/15 12:23:49;;;;;;;6.00;5.40;;;22.30;99.90;;;;;;5063099;28;20236;-71
2021/09/15 12:26:23;;;;;;;5.70;5.20;;;22.50;99.90;;;;;;5047264;28;20463;-70
2021/09/15 12:29:04;;;;;;;6.97;6.27;;;22.70;99.90;;;;;;5033701;28;20477;-71
2021/09/15 12:31:47;;;;;;;6.63;6.10;;;22.80;99.90;;;;;;5041673;28;20433;-71
2021/09/15 12:34:15;;;;;;;8.10;7.40;;;22.70;99.90;;;;;;5039899;28;20582;-71
2021/09/15 12:36:41;;;;;;;11.73;10.47;;;23.20;99.90;;;;;;5043221;28;20464;-71
2021/09/15 12:39:15;;;;;;;17.10;13.97;;;23.80;99.90;;;;;;5045167;28;20515;-71
2021/09/15 12:41:51;;;;;;;11.40;10.30;;;23.90;99.90;;;;;;5044692;28;20199;-71
2021/09/15 12:44:17;;;;;;;11.10;10.10;;;24.40;99.90;;;;;;5041580;28;20461;-71
2021/09/15 12:46:50;;;;;;;10.30;8.90;;;24.70;99.90;;;;;;5040602;28;20479;-71
2021/09/15 12:49:39;;;;;;;16.03;13.80;;;24.70;99.90;;;;;;5044158;28;20483;-71
2021/09/15 12:52:15;;;;;;;9.77;8.47;;;25.00;99.90;;;;;;5045185;28;20433;-72
2021/09/15 12:54:54;;;;;;;9.53;8.70;;;25.10;99.90;;;;;;5043705;28;20423;-71
2021/09/15 12:57:26;;;;;;;10.00;9.10;;;25.00;99.90;;;;;;5040262;28;20905;-70